sensor_id;sensor_type;location;lat;lon;timestamp;temperature;humidity
418;DHT22;49;48.530;9.200;2023-04-03T00:01:07;5.90;90.30
418;DHT22;49;48.530;9.200;2023-04-03T00:03:35;6.00;87.70
418;DHT22;49;48.530;9.200;2023-04-03T00:06:04;5.70;88.50
418;DHT22;49;48.530;9.200;2023-04-03T00:08:39;5.80;87.50
418;DHT22;49;48.530;9.200;2023-04-03T00:11:33;5.70;88.70
418;DHT22;49;48.530;9.200;2023-04-03T00:14:08;5.60;88.30
418;DHT22;49;48.530;9.200;2023-04-03T00:17:04;5.60;90.00
418;DHT22;49;48.530;9.200;2023-04-03T00:19:41;6.00;90.20
418;DHT22;49;48.530;9.200;2023-04-03T00:22:27;6.20;87.00
418;DHT22;49;48.530;9.200;2023-04-03T00:25:09;6.40;81.80
418;DHT22;49;48.530;9.200;2023-04-03T00:27:54;5.90;84.60
418;DHT22;49;48.530;9.200;2023-04-03T00:30:26;6.20;83.10
418;DHT22;49;48.530;9.200;2023-04-03T00:33:10;6.00;86.80
418;DHT22;49;48.530;9.200;2023-04-03T00:35:41;6.60;82.40
418;DHT22;49;48.530;9.200;2023-04-03T00:38:14;6.90;78.20
418;DHT22;49;48.530;9.200;2023-04-03T00:40:47;6.70;77.60
418;DHT22;49;48.530;9.200;2023-04-03T00:43:25;7.00;76.70
418;DHT22;49;48.530;9.200;2023-04-03T00:46:10;6.70;74.20
418;DHT22;49;48.530;9.200;2023-04-03T00:48:48;6.40;78.90
418;DHT22;49;48.530;9.200;2023-04-03T00:51:25;6.30;80.10
418;DHT22;49;48.530;9.200;2023-04-03T00:53:59;6.70;77.30
418;DHT22;49;48.530;9.200;2023-04-03T00:56:47;6.20;79.30
418;DHT22;49;48.530;9.200;2023-04-03T00:59:23;6.40;78.50
418;DHT22;49;48.530;9.200;2023-04-03T01:08:51;6.60;76.50
418;DHT22;49;48.530;9.200;2023-04-03T01:11:21;6.70;75.10
418;DHT22;49;48.530;9.200;2023-04-03T01:14:07;6.50;76.20
418;DHT22;49;48.530;9.200;2023-04-03T01:16:52;6.50;74.50
418;DHT22;49;48.530;9.200;2023-04-03T01:19:24;6.20;76.30
418;DHT22;49;48.530;9.200;2023-04-03T01:22:06;6.10;79.30
418;DHT22;49;48.530;9.200;2023-04-03T01:37:51;6.30;76.30
418;DHT22;49;48.530;9.200;2023-04-03T01:44:05;6.90;73.30
418;DHT22;49;48.530;9.200;2023-04-03T01:46:36;6.40;71.30
418;DHT22;49;48.530;9.200;2023-04-03T01:49:12;6.50;73.90
418;DHT22;49;48.530;9.200;2023-04-03T01:51:49;6.20;74.70
418;DHT22;49;48.530;9.200;2023-04-03T01:54:32;6.00;76.40
418;DHT22;49;48.530;9.200;2023-04-03T01:57:13;6.00;79.00
418;DHT22;49;48.530;9.200;2023-04-03T01:59:56;6.10;76.10
418;DHT22;49;48.530;9.200;2023-04-03T02:02:26;6.00;77.60
418;DHT22;49;48.530;9.200;2023-04-03T02:05:10;6.00;78.40
418;DHT22;49;48.530;9.200;2023-04-03T02:07:40;6.30;74.60
418;DHT22;49;48.530;9.200;2023-04-03T02:10:25;6.50;73.90
418;DHT22;49;48.530;9.200;2023-04-03T02:13:08;6.30;74.70
418;DHT22;49;48.530;9.200;2023-04-03T02:15:55;6.40;74.40
418;DHT22;49;48.530;9.200;2023-04-03T02:18:38;6.10;76.10
418;DHT22;49;48.530;9.200;2023-04-03T02:21:25;6.40;74.50
418;DHT22;49;48.530;9.200;2023-04-03T02:24:00;6.30;74.30
418;DHT22;49;48.530;9.200;2023-04-03T02:26:43;6.20;74.80
418;DHT22;49;48.530;9.200;2023-04-03T02:29:19;5.90;74.40
418;DHT22;49;48.530;9.200;2023-04-03T02:32:20;6.00;78.70
418;DHT22;49;48.530;9.200;2023-04-03T02:34:51;5.70;76.30
418;DHT22;49;48.530;9.200;2023-04-03T02:37:24;5.50;80.20
418;DHT22;49;48.530;9.200;2023-04-03T02:40:00;5.60;78.70
418;DHT22;49;48.530;9.200;2023-04-03T02:42:41;5.70;78.50
418;DHT22;49;48.530;9.200;2023-04-03T02:45:22;5.80;75.70
418;DHT22;49;48.530;9.200;2023-04-03T02:48:06;5.80;76.90
418;DHT22;49;48.530;9.200;2023-04-03T02:50:36;6.30;73.10
418;DHT22;49;48.530;9.200;2023-04-03T02:53:14;5.60;75.10
418;DHT22;49;48.530;9.200;2023-04-03T02:55:42;5.80;76.80
418;DHT22;49;48.530;9.200;2023-04-03T02:58:21;5.90;75.70
418;DHT22;49;48.530;9.200;2023-04-03T03:01:00;5.90;74.20
418;DHT22;49;48.530;9.200;2023-04-03T03:03:38;6.20;72.20
418;DHT22;49;48.530;9.200;2023-04-03T03:06:09;6.00;72.60
418;DHT22;49;48.530;9.200;2023-04-03T03:08:40;6.20;72.20
418;DHT22;49;48.530;9.200;2023-04-03T03:11:31;5.90;74.20
418;DHT22;49;48.530;9.200;2023-04-03T03:14:18;6.20;74.10
418;DHT22;49;48.530;9.200;2023-04-03T03:17:02;6.10;72.00
418;DHT22;49;48.530;9.200;2023-04-03T03:19:53;6.00;72.50
418;DHT22;49;48.530;9.200;2023-04-03T03:22:22;5.50;76.30
418;DHT22;49;48.530;9.200;2023-04-03T03:24:53;5.80;76.10
418;DHT22;49;48.530;9.200;2023-04-03T03:27:22;5.70;73.80
418;DHT22;49;48.530;9.200;2023-04-03T03:29:57;5.40;75.70
418;DHT22;49;48.530;9.200;2023-04-03T03:32:36;5.50;75.20
418;DHT22;49;48.530;9.200;2023-04-03T03:35:20;5.60;74.70
418;DHT22;49;48.530;9.200;2023-04-03T03:37:55;5.30;75.00
418;DHT22;49;48.530;9.200;2023-04-03T03:40:36;5.60;75.40
418;DHT22;49;48.530;9.200;2023-04-03T03:43:14;5.70;74.30
418;DHT22;49;48.530;9.200;2023-04-03T03:45:50;5.70;73.80
418;DHT22;49;48.530;9.200;2023-04-03T03:48:31;5.90;73.90
418;DHT22;49;48.530;9.200;2023-04-03T03:51:13;6.10;73.90
418;DHT22;49;48.530;9.200;2023-04-03T03:53:54;6.20;70.90
418;DHT22;49;48.530;9.200;2023-04-03T03:56:27;6.00;71.10
418;DHT22;49;48.530;9.200;2023-04-03T03:59:14;6.10;72.00
418;DHT22;49;48.530;9.200;2023-04-03T04:01:47;6.70;68.70
418;DHT22;49;48.530;9.200;2023-04-03T04:04:20;7.40;61.90
418;DHT22;49;48.530;9.200;2023-04-03T04:10:28;7.40;60.00
418;DHT22;49;48.530;9.200;2023-04-03T04:13:09;6.90;62.70
418;DHT22;49;48.530;9.200;2023-04-03T04:15:49;6.80;64.00
418;DHT22;49;48.530;9.200;2023-04-03T04:18:21;6.40;65.00
418;DHT22;49;48.530;9.200;2023-04-03T04:20:56;6.10;66.80
418;DHT22;49;48.530;9.200;2023-04-03T04:23:29;6.10;68.30
418;DHT22;49;48.530;9.200;2023-04-03T04:26:18;6.30;66.50
418;DHT22;49;48.530;9.200;2023-04-03T04:29:04;5.90;67.90
418;DHT22;49;48.530;9.200;2023-04-03T04:31:36;5.80;70.00
418;DHT22;49;48.530;9.200;2023-04-03T04:34:34;5.70;70.30
418;DHT22;49;48.530;9.200;2023-04-03T04:37:21;5.70;70.00
418;DHT22;49;48.530;9.200;2023-04-03T04:39:53;5.70;70.20
418;DHT22;49;48.530;9.200;2023-04-03T04:43:08;5.70;71.20
418;DHT22;49;48.530;9.200;2023-04-03T04:45:41;5.30;73.40
418;DHT22;49;48.530;9.200;2023-04-03T04:48:47;5.60;73.70
418;DHT22;49;48.530;9.200;2023-04-03T04:51:20;6.10;68.50
418;DHT22;49;48.530;9.200;2023-04-03T05:27:37;6.20;60.80
418;DHT22;49;48.530;9.200;2023-04-03T05:30:21;6.40;57.80
418;DHT22;49;48.530;9.200;2023-04-03T05:33:03;6.20;57.20
418;DHT22;49;48.530;9.200;2023-04-03T05:35:35;6.20;56.60
418;DHT22;49;48.530;9.200;2023-04-03T05:38:09;6.30;56.60
418;DHT22;49;48.530;9.200;2023-04-03T05:40:41;6.40;53.90
418;DHT22;49;48.530;9.200;2023-04-03T05:43:22;6.70;52.60
418;DHT22;49;48.530;9.200;2023-04-03T05:50:40;6.40;50.80
418;DHT22;49;48.530;9.200;2023-04-03T05:53:21;5.90;54.80
418;DHT22;49;48.530;9.200;2023-04-03T05:55:52;6.10;54.80
418;DHT22;49;48.530;9.200;2023-04-03T05:58:29;6.50;52.00
418;DHT22;49;48.530;9.200;2023-04-03T06:01:03;6.50;57.10
418;DHT22;49;48.530;9.200;2023-04-03T06:03:42;7.10;48.30
418;DHT22;49;48.530;9.200;2023-04-03T06:06:19;6.90;47.90
418;DHT22;49;48.530;9.200;2023-04-03T06:08:57;7.20;48.30
418;DHT22;49;48.530;9.200;2023-04-03T06:11:39;7.10;45.00
418;DHT22;49;48.530;9.200;2023-04-03T06:14:10;7.10;48.10
418;DHT22;49;48.530;9.200;2023-04-03T06:16:41;7.20;47.70
418;DHT22;49;48.530;9.200;2023-04-03T06:19:19;7.80;45.80
418;DHT22;49;48.530;9.200;2023-04-03T06:21:50;7.60;42.30
418;DHT22;49;48.530;9.200;2023-04-03T06:24:20;6.30;46.50
418;DHT22;49;48.530;9.200;2023-04-03T06:26:54;6.00;48.60
418;DHT22;49;48.530;9.200;2023-04-03T06:29:23;5.60;52.20
418;DHT22;49;48.530;9.200;2023-04-03T06:31:57;6.00;51.30
418;DHT22;49;48.530;9.200;2023-04-03T06:34:28;5.60;53.80
418;DHT22;49;48.530;9.200;2023-04-03T06:36:59;5.90;54.00
418;DHT22;49;48.530;9.200;2023-04-03T06:39:30;5.70;51.80
418;DHT22;49;48.530;9.200;2023-04-03T06:42:05;5.90;50.40
418;DHT22;49;48.530;9.200;2023-04-03T06:44:46;6.00;50.60
418;DHT22;49;48.530;9.200;2023-04-03T06:47:31;6.00;51.90
418;DHT22;49;48.530;9.200;2023-04-03T06:50:13;6.20;51.30
418;DHT22;49;48.530;9.200;2023-04-03T06:52:48;5.80;53.40
418;DHT22;49;48.530;9.200;2023-04-03T06:55:34;5.90;52.30
418;DHT22;49;48.530;9.200;2023-04-03T06:58:04;5.40;53.00
418;DHT22;49;48.530;9.200;2023-04-03T07:00:37;5.40;54.80
418;DHT22;49;48.530;9.200;2023-04-03T07:03:07;5.60;54.60
418;DHT22;49;48.530;9.200;2023-04-03T07:05:44;5.60;55.50
418;DHT22;49;48.530;9.200;2023-04-03T07:08:17;5.90;53.80
418;DHT22;49;48.530;9.200;2023-04-03T07:10:56;6.00;52.90
418;DHT22;49;48.530;9.200;2023-04-03T07:14:20;6.00;51.80
418;DHT22;49;48.530;9.200;2023-04-03T07:17:00;6.20;50.20
418;DHT22;49;48.530;9.200;2023-04-03T07:19:41;6.00;53.90
418;DHT22;49;48.530;9.200;2023-04-03T07:22:12;6.00;50.60
418;DHT22;49;48.530;9.200;2023-04-03T07:24:46;6.50;51.30
418;DHT22;49;48.530;9.200;2023-04-03T07:27:26;6.60;48.90
418;DHT22;49;48.530;9.200;2023-04-03T07:29:57;6.20;49.30
418;DHT22;49;48.530;9.200;2023-04-03T07:32:38;6.60;48.70
418;DHT22;49;48.530;9.200;2023-04-03T07:35:13;6.40;49.00
418;DHT22;49;48.530;9.200;2023-04-03T07:37:48;6.50;48.20
418;DHT22;49;48.530;9.200;2023-04-03T07:40:20;6.40;50.50
418;DHT22;49;48.530;9.200;2023-04-03T07:42:55;6.60;49.50
418;DHT22;49;48.530;9.200;2023-04-03T07:45:35;6.80;49.00
418;DHT22;49;48.530;9.200;2023-04-03T07:51:06;7.70;44.60
418;DHT22;49;48.530;9.200;2023-04-03T07:53:39;7.50;43.00
418;DHT22;49;48.530;9.200;2023-04-03T07:56:18;7.40;44.10
418;DHT22;49;48.530;9.200;2023-04-03T07:58:58;7.40;43.20
418;DHT22;49;48.530;9.200;2023-04-03T08:01:27;7.80;42.80
418;DHT22;49;48.530;9.200;2023-04-03T08:04:02;8.10;39.50
418;DHT22;49;48.530;9.200;2023-04-03T08:06:59;8.20;39.40
418;DHT22;49;48.530;9.200;2023-04-03T08:09:28;8.90;38.50
418;DHT22;49;48.530;9.200;2023-04-03T08:14:52;8.70;35.80
418;DHT22;49;48.530;9.200;2023-04-03T08:17:25;8.20;39.30
418;DHT22;49;48.530;9.200;2023-04-03T08:20:15;8.50;37.70
418;DHT22;49;48.530;9.200;2023-04-03T08:23:14;8.30;37.00
418;DHT22;49;48.530;9.200;2023-04-03T08:25:55;8.30;39.00
418;DHT22;49;48.530;9.200;2023-04-03T08:28:38;8.70;36.90
418;DHT22;49;48.530;9.200;2023-04-03T08:31:19;8.30;35.00
418;DHT22;49;48.530;9.200;2023-04-03T08:33:58;7.80;38.90
418;DHT22;49;48.530;9.200;2023-04-03T08:37:04;7.50;38.60
418;DHT22;49;48.530;9.200;2023-04-03T08:39:46;7.50;40.00
418;DHT22;49;48.530;9.200;2023-04-03T08:42:40;8.00;39.10
418;DHT22;49;48.530;9.200;2023-04-03T08:45:18;7.70;39.30
418;DHT22;49;48.530;9.200;2023-04-03T08:48:13;7.90;39.10
418;DHT22;49;48.530;9.200;2023-04-03T08:50:50;7.60;40.30
418;DHT22;49;48.530;9.200;2023-04-03T08:53:27;7.70;42.10
418;DHT22;49;48.530;9.200;2023-04-03T08:56:04;8.60;38.00
418;DHT22;49;48.530;9.200;2023-04-03T08:58:47;9.40;35.00
418;DHT22;49;48.530;9.200;2023-04-03T09:01:23;9.80;30.70
418;DHT22;49;48.530;9.200;2023-04-03T09:04:09;9.30;31.80
418;DHT22;49;48.530;9.200;2023-04-03T09:06:46;8.80;34.40
418;DHT22;49;48.530;9.200;2023-04-03T09:09:36;8.70;33.10
418;DHT22;49;48.530;9.200;2023-04-03T09:12:18;8.20;37.30
418;DHT22;49;48.530;9.200;2023-04-03T09:14:57;8.10;34.80
418;DHT22;49;48.530;9.200;2023-04-03T09:17:41;8.20;37.10
418;DHT22;49;48.530;9.200;2023-04-03T09:20:33;8.20;37.50
418;DHT22;49;48.530;9.200;2023-04-03T09:23:32;7.70;37.00
418;DHT22;49;48.530;9.200;2023-04-03T09:26:04;7.70;37.40
418;DHT22;49;48.530;9.200;2023-04-03T09:28:40;7.90;35.40
418;DHT22;49;48.530;9.200;2023-04-03T09:31:22;8.10;34.80
418;DHT22;49;48.530;9.200;2023-04-03T09:34:10;8.00;35.80
418;DHT22;49;48.530;9.200;2023-04-03T09:36:51;7.60;36.80
418;DHT22;49;48.530;9.200;2023-04-03T09:39:25;7.70;36.60
418;DHT22;49;48.530;9.200;2023-04-03T09:42:24;8.10;37.10
418;DHT22;49;48.530;9.200;2023-04-03T09:45:22;7.60;39.70
418;DHT22;49;48.530;9.200;2023-04-03T09:48:15;7.60;39.40
418;DHT22;49;48.530;9.200;2023-04-03T09:51:08;7.40;39.50
418;DHT22;49;48.530;9.200;2023-04-03T09:53:55;7.20;40.60
418;DHT22;49;48.530;9.200;2023-04-03T09:56:41;7.40;38.10
418;DHT22;49;48.530;9.200;2023-04-03T09:59:21;7.50;36.80
418;DHT22;49;48.530;9.200;2023-04-03T10:02:38;8.10;39.90
418;DHT22;49;48.530;9.200;2023-04-03T10:05:33;8.90;35.50
418;DHT22;49;48.530;9.200;2023-04-03T10:08:25;8.80;33.80
418;DHT22;49;48.530;9.200;2023-04-03T10:11:18;8.50;32.20
418;DHT22;49;48.530;9.200;2023-04-03T10:13:54;8.10;35.30
418;DHT22;49;48.530;9.200;2023-04-03T10:16:35;8.40;33.10
418;DHT22;49;48.530;9.200;2023-04-03T10:19:26;8.60;32.60
418;DHT22;49;48.530;9.200;2023-04-03T10:22:15;8.80;30.40
418;DHT22;49;48.530;9.200;2023-04-03T10:25:07;8.80;30.10
418;DHT22;49;48.530;9.200;2023-04-03T10:28:02;8.90;31.90
418;DHT22;49;48.530;9.200;2023-04-03T10:30:41;8.50;31.80
418;DHT22;49;48.530;9.200;2023-04-03T10:33:51;9.20;31.40
418;DHT22;49;48.530;9.200;2023-04-03T10:36:28;9.00;29.50
418;DHT22;49;48.530;9.200;2023-04-03T10:39:08;8.40;28.90
418;DHT22;49;48.530;9.200;2023-04-03T10:41:53;8.60;30.90
418;DHT22;49;48.530;9.200;2023-04-03T10:47:46;8.60;28.70
418;DHT22;49;48.530;9.200;2023-04-03T10:50:29;8.70;28.10
418;DHT22;49;48.530;9.200;2023-04-03T10:53:09;8.50;28.90
418;DHT22;49;48.530;9.200;2023-04-03T11:02:05;10.40;23.20
418;DHT22;49;48.530;9.200;2023-04-03T11:04:39;9.50;23.30
418;DHT22;49;48.530;9.200;2023-04-03T11:07:20;8.90;25.00
418;DHT22;49;48.530;9.200;2023-04-03T11:10:17;9.20;23.80
418;DHT22;49;48.530;9.200;2023-04-03T11:12:58;9.10;23.10
418;DHT22;49;48.530;9.200;2023-04-03T11:15:32;8.00;26.60
418;DHT22;49;48.530;9.200;2023-04-03T11:18:09;8.20;27.70
418;DHT22;49;48.530;9.200;2023-04-03T11:20:53;8.30;28.30
418;DHT22;49;48.530;9.200;2023-04-03T11:23:23;8.70;26.20
418;DHT22;49;48.530;9.200;2023-04-03T11:25:59;9.00;25.70
418;DHT22;49;48.530;9.200;2023-04-03T11:28:32;8.80;25.20
418;DHT22;49;48.530;9.200;2023-04-03T11:31:29;8.10;26.00
418;DHT22;49;48.530;9.200;2023-04-03T11:34:13;7.80;25.60
418;DHT22;49;48.530;9.200;2023-04-03T11:36:46;7.80;26.60
418;DHT22;49;48.530;9.200;2023-04-03T11:39:22;7.80;26.20
418;DHT22;49;48.530;9.200;2023-04-03T11:41:53;7.70;27.20
418;DHT22;49;48.530;9.200;2023-04-03T11:44:39;7.90;26.10
418;DHT22;49;48.530;9.200;2023-04-03T11:47:10;7.90;26.90
418;DHT22;49;48.530;9.200;2023-04-03T11:50:08;8.00;26.90
418;DHT22;49;48.530;9.200;2023-04-03T11:53:00;8.40;27.30
418;DHT22;49;48.530;9.200;2023-04-03T11:55:59;8.40;26.40
418;DHT22;49;48.530;9.200;2023-04-03T11:58:31;8.60;24.00
418;DHT22;49;48.530;9.200;2023-04-03T12:01:09;8.60;26.80
418;DHT22;49;48.530;9.200;2023-04-03T12:04:07;8.80;25.20
418;DHT22;49;48.530;9.200;2023-04-03T12:10:17;8.20;25.90
418;DHT22;49;48.530;9.200;2023-04-03T12:13:00;8.20;23.30
418;DHT22;49;48.530;9.200;2023-04-03T12:15:58;8.60;24.50
418;DHT22;49;48.530;9.200;2023-04-03T12:18:57;9.00;25.30
418;DHT22;49;48.530;9.200;2023-04-03T12:24:45;9.90;23.60
418;DHT22;49;48.530;9.200;2023-04-03T12:27:44;9.50;20.50
418;DHT22;49;48.530;9.200;2023-04-03T12:30:25;8.30;22.60
418;DHT22;49;48.530;9.200;2023-04-03T12:33:10;8.30;24.60
418;DHT22;49;48.530;9.200;2023-04-03T12:35:52;8.10;23.60
418;DHT22;49;48.530;9.200;2023-04-03T12:39:09;8.10;24.20
418;DHT22;49;48.530;9.200;2023-04-03T12:41:48;7.70;25.40
418;DHT22;49;48.530;9.200;2023-04-03T12:44:43;8.20;24.60
418;DHT22;49;48.530;9.200;2023-04-03T12:47:30;8.50;24.40
418;DHT22;49;48.530;9.200;2023-04-03T12:50:02;8.60;23.90
418;DHT22;49;48.530;9.200;2023-04-03T12:52:41;8.90;22.90
418;DHT22;49;48.530;9.200;2023-04-03T12:55:17;9.20;22.50
418;DHT22;49;48.530;9.200;2023-04-03T12:57:51;8.70;22.40
418;DHT22;49;48.530;9.200;2023-04-03T13:00:48;8.80;22.80
418;DHT22;49;48.530;9.200;2023-04-03T13:03:38;9.40;23.10
418;DHT22;49;48.530;9.200;2023-04-03T13:06:21;9.20;22.00
418;DHT22;49;48.530;9.200;2023-04-03T13:08:59;9.10;23.10
418;DHT22;49;48.530;9.200;2023-04-03T13:11:36;9.30;21.20
418;DHT22;49;48.530;9.200;2023-04-03T13:14:16;9.00;22.20
418;DHT22;49;48.530;9.200;2023-04-03T13:16:59;9.10;24.30
418;DHT22;49;48.530;9.200;2023-04-03T13:19:30;8.80;21.30
418;DHT22;49;48.530;9.200;2023-04-03T13:22:03;8.60;22.20
418;DHT22;49;48.530;9.200;2023-04-03T13:24:53;8.60;22.80
418;DHT22;49;48.530;9.200;2023-04-03T13:27:42;8.70;22.80
418;DHT22;49;48.530;9.200;2023-04-03T13:30:55;9.10;22.10
418;DHT22;49;48.530;9.200;2023-04-03T13:33:56;9.40;22.20
418;DHT22;49;48.530;9.200;2023-04-03T13:36:50;10.10;20.00
418;DHT22;49;48.530;9.200;2023-04-03T13:39:27;10.30;19.10
418;DHT22;49;48.530;9.200;2023-04-03T13:41:58;10.20;19.80
418;DHT22;49;48.530;9.200;2023-04-03T13:44:35;10.70;18.60
418;DHT22;49;48.530;9.200;2023-04-03T13:47:17;10.60;20.00
418;DHT22;49;48.530;9.200;2023-04-03T13:50:02;9.80;20.20
418;DHT22;49;48.530;9.200;2023-04-03T13:52:54;9.00;21.00
418;DHT22;49;48.530;9.200;2023-04-03T13:55:27;9.10;21.40
418;DHT22;49;48.530;9.200;2023-04-03T13:57:57;9.00;21.10
418;DHT22;49;48.530;9.200;2023-04-03T14:00:35;9.00;21.10
418;DHT22;49;48.530;9.200;2023-04-03T14:03:16;8.80;21.40
418;DHT22;49;48.530;9.200;2023-04-03T14:06:17;9.30;22.40
418;DHT22;49;48.530;9.200;2023-04-03T14:08:56;10.10;21.30
418;DHT22;49;48.530;9.200;2023-04-03T14:11:28;10.70;17.50
418;DHT22;49;48.530;9.200;2023-04-03T14:14:15;10.80;17.60
418;DHT22;49;48.530;9.200;2023-04-03T14:19:51;11.10;17.50
418;DHT22;49;48.530;9.200;2023-04-03T14:22:33;10.60;16.90
418;DHT22;49;48.530;9.200;2023-04-03T14:25:01;9.80;20.20
418;DHT22;49;48.530;9.200;2023-04-03T14:27:34;8.90;20.70
418;DHT22;49;48.530;9.200;2023-04-03T14:30:08;8.70;22.80
418;DHT22;49;48.530;9.200;2023-04-03T14:32:38;9.50;22.10
418;DHT22;49;48.530;9.200;2023-04-03T14:35:08;9.90;19.10
418;DHT22;49;48.530;9.200;2023-04-03T14:37:46;9.90;19.60
418;DHT22;49;48.530;9.200;2023-04-03T14:40:17;9.80;19.40
418;DHT22;49;48.530;9.200;2023-04-03T14:42:50;10.10;18.90
418;DHT22;49;48.530;9.200;2023-04-03T14:45:21;10.50;18.80
418;DHT22;49;48.530;9.200;2023-04-03T14:47:50;10.70;17.00
418;DHT22;49;48.530;9.200;2023-04-03T14:50:24;10.20;19.20
418;DHT22;49;48.530;9.200;2023-04-03T14:52:56;9.40;23.30
418;DHT22;49;48.530;9.200;2023-04-03T14:55:25;9.40;19.10
418;DHT22;49;48.530;9.200;2023-04-03T14:58:03;9.10;20.30
418;DHT22;49;48.530;9.200;2023-04-03T15:00:36;9.50;20.20
418;DHT22;49;48.530;9.200;2023-04-03T15:03:44;10.20;17.00
418;DHT22;49;48.530;9.200;2023-04-03T15:06:14;10.50;20.10
418;DHT22;49;48.530;9.200;2023-04-03T15:09:00;10.90;15.80
418;DHT22;49;48.530;9.200;2023-04-03T15:11:28;11.20;15.60
418;DHT22;49;48.530;9.200;2023-04-03T15:13:58;10.70;16.30
418;DHT22;49;48.530;9.200;2023-04-03T15:16:27;10.20;16.00
418;DHT22;49;48.530;9.200;2023-04-03T15:18:56;9.10;17.20
418;DHT22;49;48.530;9.200;2023-04-03T15:21:23;8.80;18.80
418;DHT22;49;48.530;9.200;2023-04-03T15:23:53;9.30;18.10
418;DHT22;49;48.530;9.200;2023-04-03T15:26:25;9.40;18.00
418;DHT22;49;48.530;9.200;2023-04-03T15:28:52;9.00;19.00
418;DHT22;49;48.530;9.200;2023-04-03T15:31:25;8.90;18.50
418;DHT22;49;48.530;9.200;2023-04-03T15:33:52;9.00;20.60
418;DHT22;49;48.530;9.200;2023-04-03T15:36:21;8.80;20.80
418;DHT22;49;48.530;9.200;2023-04-03T15:38:48;8.60;21.30
418;DHT22;49;48.530;9.200;2023-04-03T15:41:22;8.80;20.30
418;DHT22;49;48.530;9.200;2023-04-03T15:43:50;9.10;20.20
418;DHT22;49;48.530;9.200;2023-04-03T15:46:18;8.80;19.90
418;DHT22;49;48.530;9.200;2023-04-03T15:48:45;8.80;19.50
418;DHT22;49;48.530;9.200;2023-04-03T15:51:12;8.80;19.60
418;DHT22;49;48.530;9.200;2023-04-03T15:53:42;9.10;21.70
418;DHT22;49;48.530;9.200;2023-04-03T15:56:09;8.80;20.00
418;DHT22;49;48.530;9.200;2023-04-03T15:58:37;8.60;21.90
418;DHT22;49;48.530;9.200;2023-04-03T16:01:05;8.80;20.90
418;DHT22;49;48.530;9.200;2023-04-03T16:03:34;8.60;19.80
418;DHT22;49;48.530;9.200;2023-04-03T16:06:19;8.40;20.60
418;DHT22;49;48.530;9.200;2023-04-03T16:08:49;8.10;21.10
418;DHT22;49;48.530;9.200;2023-04-03T16:11:30;8.20;20.30
418;DHT22;49;48.530;9.200;2023-04-03T16:14:05;8.80;19.10
418;DHT22;49;48.530;9.200;2023-04-03T16:16:32;8.70;19.30
418;DHT22;49;48.530;9.200;2023-04-03T16:19:01;8.70;19.30
418;DHT22;49;48.530;9.200;2023-04-03T16:21:28;8.90;20.10
418;DHT22;49;48.530;9.200;2023-04-03T16:23:59;8.50;19.80
418;DHT22;49;48.530;9.200;2023-04-03T16:26:27;9.10;19.80
418;DHT22;49;48.530;9.200;2023-04-03T16:29:05;8.90;19.20
418;DHT22;49;48.530;9.200;2023-04-03T16:31:35;8.60;17.70
418;DHT22;49;48.530;9.200;2023-04-03T16:34:05;8.10;18.50
418;DHT22;49;48.530;9.200;2023-04-03T16:36:39;8.40;22.50
418;DHT22;49;48.530;9.200;2023-04-03T16:39:07;8.90;17.20
418;DHT22;49;48.530;9.200;2023-04-03T16:41:35;8.40;17.80
418;DHT22;49;48.530;9.200;2023-04-03T16:44:08;8.30;20.10
418;DHT22;49;48.530;9.200;2023-04-03T16:46:45;8.50;19.60
418;DHT22;49;48.530;9.200;2023-04-03T16:49:14;8.60;17.00
418;DHT22;49;48.530;9.200;2023-04-03T16:51:45;8.80;18.70
418;DHT22;49;48.530;9.200;2023-04-03T16:54:15;9.30;17.90
418;DHT22;49;48.530;9.200;2023-04-03T16:56:49;9.20;17.50
418;DHT22;49;48.530;9.200;2023-04-03T16:59:19;9.50;17.50
418;DHT22;49;48.530;9.200;2023-04-03T17:01:53;9.20;18.00
418;DHT22;49;48.530;9.200;2023-04-03T17:04:29;8.70;18.90
418;DHT22;49;48.530;9.200;2023-04-03T17:06:57;8.40;19.70
418;DHT22;49;48.530;9.200;2023-04-03T17:09:29;8.30;20.10
418;DHT22;49;48.530;9.200;2023-04-03T17:11:56;8.20;19.90
418;DHT22;49;48.530;9.200;2023-04-03T17:14:27;8.00;20.30
418;DHT22;49;48.530;9.200;2023-04-03T17:17:01;7.80;21.50
418;DHT22;49;48.530;9.200;2023-04-03T17:19:32;8.30;20.90
418;DHT22;49;48.530;9.200;2023-04-03T17:22:04;8.50;20.20
418;DHT22;49;48.530;9.200;2023-04-03T17:24:38;8.40;20.10
418;DHT22;49;48.530;9.200;2023-04-03T17:27:07;8.30;20.90
418;DHT22;49;48.530;9.200;2023-04-03T17:29:35;8.00;20.20
418;DHT22;49;48.530;9.200;2023-04-03T17:32:09;8.00;21.30
418;DHT22;49;48.530;9.200;2023-04-03T17:34:39;8.10;20.10
418;DHT22;49;48.530;9.200;2023-04-03T17:37:07;7.80;20.10
418;DHT22;49;48.530;9.200;2023-04-03T17:39:39;7.60;21.00
418;DHT22;49;48.530;9.200;2023-04-03T17:42:09;7.60;20.60
418;DHT22;49;48.530;9.200;2023-04-03T17:44:38;7.60;21.60
418;DHT22;49;48.530;9.200;2023-04-03T17:47:08;7.90;21.30
418;DHT22;49;48.530;9.200;2023-04-03T17:49:43;8.00;20.70
418;DHT22;49;48.530;9.200;2023-04-03T17:52:17;7.50;20.50
418;DHT22;49;48.530;9.200;2023-04-03T17:54:52;7.00;21.30
418;DHT22;49;48.530;9.200;2023-04-03T17:57:24;7.00;21.70
418;DHT22;49;48.530;9.200;2023-04-03T17:59:59;7.40;21.00
418;DHT22;49;48.530;9.200;2023-04-03T18:02:37;7.40;21.00
418;DHT22;49;48.530;9.200;2023-04-03T18:05:08;7.40;19.80
418;DHT22;49;48.530;9.200;2023-04-03T18:07:37;7.20;20.10
418;DHT22;49;48.530;9.200;2023-04-03T18:10:07;7.10;20.60
418;DHT22;49;48.530;9.200;2023-04-03T18:12:39;7.30;20.20
418;DHT22;49;48.530;9.200;2023-04-03T18:15:07;7.60;20.70
418;DHT22;49;48.530;9.200;2023-04-03T18:17:35;7.80;19.90
418;DHT22;49;48.530;9.200;2023-04-03T18:20:02;7.80;19.60
418;DHT22;49;48.530;9.200;2023-04-03T18:22:35;7.60;20.70
418;DHT22;49;48.530;9.200;2023-04-03T18:25:03;7.70;20.50
418;DHT22;49;48.530;9.200;2023-04-03T18:27:37;7.70;20.40
418;DHT22;49;48.530;9.200;2023-04-03T18:30:08;7.70;20.50
418;DHT22;49;48.530;9.200;2023-04-03T18:32:36;7.80;20.30
418;DHT22;49;48.530;9.200;2023-04-03T18:35:05;7.70;20.50
418;DHT22;49;48.530;9.200;2023-04-03T18:37:34;7.60;21.00
418;DHT22;49;48.530;9.200;2023-04-03T18:40:01;7.80;20.20
418;DHT22;49;48.530;9.200;2023-04-03T18:42:28;7.90;20.20
418;DHT22;49;48.530;9.200;2023-04-03T18:44:59;7.80;20.60
418;DHT22;49;48.530;9.200;2023-04-03T18:47:28;7.60;21.00
418;DHT22;49;48.530;9.200;2023-04-03T18:50:00;7.60;21.60
418;DHT22;49;48.530;9.200;2023-04-03T18:52:29;7.70;20.90
418;DHT22;49;48.530;9.200;2023-04-03T18:54:56;7.50;20.90
418;DHT22;49;48.530;9.200;2023-04-03T18:57:23;7.60;21.20
418;DHT22;49;48.530;9.200;2023-04-03T18:59:52;7.70;21.50
418;DHT22;49;48.530;9.200;2023-04-03T19:02:23;7.80;21.60
418;DHT22;49;48.530;9.200;2023-04-03T19:04:51;8.20;21.10
418;DHT22;49;48.530;9.200;2023-04-03T19:07:25;7.90;20.80
418;DHT22;49;48.530;9.200;2023-04-03T19:10:16;7.70;21.60
418;DHT22;49;48.530;9.200;2023-04-03T19:12:58;7.70;21.70
418;DHT22;49;48.530;9.200;2023-04-03T19:15:40;7.90;22.30
418;DHT22;49;48.530;9.200;2023-04-03T19:18:20;7.80;21.40
418;DHT22;49;48.530;9.200;2023-04-03T19:20:47;7.90;21.40
418;DHT22;49;48.530;9.200;2023-04-03T19:23:20;8.10;20.70
418;DHT22;49;48.530;9.200;2023-04-03T19:25:56;7.90;21.20
418;DHT22;49;48.530;9.200;2023-04-03T19:28:25;7.90;21.40
418;DHT22;49;48.530;9.200;2023-04-03T19:30:55;7.50;22.00
418;DHT22;49;48.530;9.200;2023-04-03T19:33:33;7.50;22.00
418;DHT22;49;48.530;9.200;2023-04-03T19:36:19;7.20;23.00
418;DHT22;49;48.530;9.200;2023-04-03T19:38:47;7.10;23.20
418;DHT22;49;48.530;9.200;2023-04-03T19:41:22;7.20;23.10
418;DHT22;49;48.530;9.200;2023-04-03T19:43:53;7.20;23.40
418;DHT22;49;48.530;9.200;2023-04-03T19:46:24;7.10;23.50
418;DHT22;49;48.530;9.200;2023-04-03T19:48:57;7.00;23.40
418;DHT22;49;48.530;9.200;2023-04-03T19:51:25;7.00;23.90
418;DHT22;49;48.530;9.200;2023-04-03T19:53:53;6.90;24.20